Observations for CATANIA FONTANAROSA, Italy (LICC)

LICC 201950Z 06009KT CAVOK 12/08 Q1024  
LICC 201920Z 05010KT 9999 FEW040 13/08 Q1024
LICC 201850Z 06011KT 9999 FEW040 13/08 Q1024
LICC 201820Z 06010KT CAVOK 13/08 Q1024  
LICC 201750Z 06010KT CAVOK 13/08 Q1024  
LICC 201720Z 07009KT CAVOK 13/08 Q1023  
LICC 201650Z 08008KT CAVOK 13/08 Q1023  
LICC 201620Z 08007KT CAVOK 13/09 Q1023  
LICC 201550Z 08008KT CAVOK 14/08 Q1023  
LICC 201520Z 08008KT CAVOK 14/08 Q1023  
LICC 201450Z 08008KT CAVOK 14/09 Q1023  
LICC 201420Z 09008KT CAVOK 14/09 Q1023  
LICC 201350Z 09008KT 050V110 CAVOK 14/09 Q1023  
LICC 201320Z 08008KT CAVOK 14/09 Q1023  
LICC 201250Z 08008KT CAVOK 14/09 Q1023  
LICC 201220Z 10006KT 070V130 CAVOK 15/09 Q1023  
LICC 201150Z 10007KT CAVOK 15/09 Q1023  
LICC 201120Z 09007KT CAVOK 15/09 Q1023  
LICC 201050Z VRB03KT CAVOK 15/08 Q1024  
LICC 201020Z 14004KT 050V220 CAVOK 15/07 Q1024  
LICC 200950Z VRB04KT CAVOK 14/08 Q1024  
LICC 200920Z 21004KT 140V270 CAVOK 13/08 Q1024  
LICC 200850Z 21005KT 170V250 CAVOK 12/08 Q1024  
LICC 200820Z 22004KT 180V240 CAVOK 10/08 Q1024  
LICC 200750Z 21004KT CAVOK 09/08 Q1024  
LICC 200720Z 25004KT 8000 NSC 07/06 Q1024   
LICC 200650Z 27004KT 250V340 6000 NSC 05/05 Q1023   
LICC 200620Z 25004KT 5000 BR NSC 04/04 Q1023
LICC 200550Z 24005KT 7000 NSC 04/03 Q1023   
LICC 200520Z 25005KT 7000 NSC 04/04 Q1022   
LICC 200450Z 25005KT 6000 NSC 04/04 Q1022   
LICC 200420Z 26004KT 6000 NSC 04/04 Q1022   
LICC 200350Z 24004KT 6000 NSC 04/04 Q1022   
LICC 200320Z 23002KT 6000 NSC 04/04 Q1022   
LICC 200250Z VRB01KT 6000 NSC 05/05 Q1022   
LICC 200220Z 22005KT 6000 NSC 05/05 Q1022   
LICC 200150Z 24006KT 6000 NSC 05/05 Q1022   
LICC 200120Z 24006KT 6000 NSC 05/05 Q1023   
LICC 200050Z 24006KT 6000 NSC 05/05 Q1023   
LICC 200020Z 25005KT 6000 NSC 04/04 Q1023   
LICC 192350Z 23003KT 6000 NSC 04/04 Q1023   
LICC 192320Z VRB02KT 7000 NSC 04/04 Q1023   
LICC 192250Z 24004KT 7000 NSC 05/05 Q1023   
LICC 192220Z 23004KT 7000 NSC 05/05 Q1023   
LICC 192150Z 23005KT 190V280 8000 NSC 06/06 Q1023   
LICC 192120Z 28005KT 210V290 8000 NSC 06/06 Q1023   
LICC 192050Z 27006KT 210V280 8000 NSC 07/06 Q1023   
LICC 192020Z 25006KT 8000 NSC 06/06 Q1023   
LICC 191950Z 26006KT 8000 NSC 07/06 Q1023   
LICC 191920Z 27005KT CAVOK 07/06 Q1022